createdAt,value
2019-05-22T00:00:45.577Z,2.52
2019-05-22T00:01:49.388Z,3.00
2019-05-22T00:02:50.781Z,3.12
2019-05-22T00:03:54.258Z,2.85
2019-05-22T00:05:13.925Z,3.10
2019-05-22T00:06:18.410Z,2.80
2019-05-22T00:07:21.715Z,3.15
2019-05-22T00:08:23.300Z,3.37
2019-05-22T00:09:27.413Z,3.22
2019-05-22T00:10:33.321Z,3.15
2019-05-22T00:11:35.034Z,3.08
2019-05-22T00:12:46.775Z,3.00
2019-05-22T00:13:44.150Z,3.00
2019-05-22T00:14:45.705Z,3.02
2019-05-22T00:15:49.096Z,2.87
2019-05-22T00:16:50.587Z,3.12
2019-05-22T00:17:54.192Z,3.35
2019-05-22T00:18:55.880Z,2.80
2019-05-22T00:19:57.775Z,2.92
2019-05-22T00:20:59.353Z,3.05
2019-05-22T00:22:17.560Z,2.75
2019-05-22T00:23:18.956Z,3.05
2019-05-22T00:24:22.433Z,3.00
2019-05-22T00:25:28.964Z,3.10
2019-05-22T00:26:30.913Z,2.77
2019-05-22T00:27:34.212Z,3.10
2019-05-22T00:28:37.706Z,3.17
2019-05-22T00:29:40.695Z,2.90
2019-05-22T00:30:44.480Z,2.95
2019-05-22T00:31:47.471Z,2.77
2019-05-22T00:32:50.060Z,2.85
2019-05-22T00:33:51.477Z,3.35
2019-05-22T00:34:54.950Z,3.15
2019-05-22T00:35:58.648Z,3.42
2019-05-22T00:37:00.438Z,3.17
2019-05-22T00:38:02.799Z,3.22
2019-05-22T00:39:06.035Z,3.33
2019-05-22T00:40:09.745Z,3.20
2019-05-22T00:41:12.861Z,3.17
2019-05-22T00:42:14.865Z,3.12
2019-05-22T00:43:18.178Z,3.58
2019-05-22T00:44:21.492Z,3.00
2019-05-22T00:45:24.048Z,3.10
2019-05-22T00:46:25.441Z,3.62
2019-05-22T00:47:29.029Z,3.20
2019-05-22T00:48:31.394Z,3.40
2019-05-22T00:49:33.370Z,2.98
2019-05-22T00:50:48.800Z,3.17
2019-05-22T00:52:07.425Z,3.05
2019-05-22T00:53:27.384Z,3.15
2019-05-22T00:54:37.668Z,3.40
2019-05-22T00:55:46.777Z,2.75
2019-05-22T00:56:52.852Z,3.00
2019-05-22T00:57:56.130Z,3.30
2019-05-22T00:58:59.524Z,3.12
2019-05-22T01:00:21.201Z,3.00
2019-05-22T01:01:27.823Z,3.47
2019-05-22T01:02:36.009Z,3.27
2019-05-22T01:03:38.109Z,3.30
2019-05-22T01:04:42.257Z,3.27
2019-05-22T01:05:43.757Z,3.22
2019-05-22T01:06:47.451Z,3.33
2019-05-22T01:07:50.981Z,3.47
2019-05-22T01:08:52.461Z,2.90
2019-05-22T01:09:57.890Z,3.00
2019-05-22T01:11:00.493Z,3.10
2019-05-22T01:12:02.626Z,2.87
2019-05-22T01:13:04.396Z,3.20
2019-05-22T01:14:08.381Z,3.35
2019-05-22T01:15:14.185Z,3.33
2019-05-22T01:16:16.943Z,3.08
2019-05-22T01:17:20.630Z,3.30
2019-05-22T01:18:22.722Z,3.05
2019-05-22T01:19:24.728Z,3.12
2019-05-22T01:20:27.837Z,3.25
2019-05-22T01:21:30.212Z,2.83
2019-05-22T01:22:33.418Z,3.12
2019-05-22T01:23:35.989Z,3.20
2019-05-22T01:24:38.092Z,3.08
2019-05-22T01:25:41.378Z,3.00
2019-05-22T01:26:43.069Z,2.90
2019-05-22T01:27:46.365Z,3.22
2019-05-22T01:28:48.060Z,3.58
2019-05-22T01:29:49.950Z,3.35
2019-05-22T01:30:53.289Z,3.17
2019-05-22T01:31:59.574Z,3.02
2019-05-22T01:33:04.075Z,3.70
2019-05-22T01:34:12.511Z,3.50
2019-05-22T01:35:16.033Z,3.35
2019-05-22T01:36:23.117Z,3.45
2019-05-22T01:37:25.793Z,3.10
2019-05-22T01:38:28.399Z,3.10
2019-05-22T01:39:35.287Z,3.58
2019-05-22T01:40:48.241Z,3.37
2019-05-22T01:41:51.457Z,3.37
2019-05-22T01:42:54.929Z,3.45
2019-05-22T01:43:56.924Z,3.37
2019-05-22T01:45:05.937Z,3.10
2019-05-22T01:46:03.204Z,3.80
2019-05-22T01:47:09.366Z,3.20
2019-05-22T01:48:16.695Z,2.70
2019-05-22T01:49:19.775Z,3.35
2019-05-22T01:50:40.637Z,3.50
2019-05-22T01:51:42.035Z,3.33
2019-05-22T01:52:45.516Z,3.55
2019-05-22T01:53:49.500Z,3.05
2019-05-22T01:54:51.971Z,3.75
2019-05-22T01:56:03.001Z,3.50
2019-05-22T01:57:04.678Z,3.20
2019-05-22T01:58:07.797Z,3.35
2019-05-22T01:59:10.675Z,3.65
2019-05-22T02:00:12.762Z,3.52
2019-05-22T02:01:19.241Z,3.60
2019-05-22T02:02:23.029Z,3.72
2019-05-22T02:03:27.214Z,3.47
2019-05-22T02:04:29.912Z,3.62
2019-05-22T02:05:32.794Z,3.37
2019-05-22T02:06:36.509Z,3.58
2019-05-22T02:07:38.294Z,3.47
2019-05-22T02:08:43.393Z,3.47
2019-05-22T02:09:45.788Z,3.50
2019-05-22T02:10:49.237Z,3.45
2019-05-22T02:12:05.254Z,3.33
2019-05-22T02:13:08.967Z,3.87
2019-05-22T02:14:14.836Z,3.72
2019-05-22T02:15:18.193Z,4.00
2019-05-22T02:16:20.776Z,3.30
2019-05-22T02:17:28.933Z,3.40
2019-05-22T02:18:33.014Z,3.80
2019-05-22T02:19:34.616Z,3.55
2019-05-22T02:20:38.205Z,3.58
2019-05-22T02:21:40.108Z,3.33
2019-05-22T02:22:41.699Z,3.92
2019-05-22T02:23:45.188Z,3.65
2019-05-22T02:24:49.278Z,3.50
2019-05-22T02:25:51.564Z,3.98
2019-05-22T02:26:55.260Z,3.45
2019-05-22T02:27:58.375Z,3.87
2019-05-22T02:29:00.550Z,3.47
2019-05-22T02:30:04.162Z,3.83
2019-05-22T02:31:08.359Z,3.35
2019-05-22T02:32:12.860Z,3.72
2019-05-22T02:33:17.151Z,3.58
2019-05-22T02:34:18.537Z,3.37
2019-05-22T02:35:21.140Z,3.33
2019-05-22T02:36:24.314Z,3.45
2019-05-22T02:37:26.541Z,3.30
2019-05-22T02:38:28.732Z,3.47
2019-05-22T02:39:32.119Z,3.67
2019-05-22T02:40:34.524Z,3.62
2019-05-22T02:41:39.996Z,3.87
2019-05-22T02:42:41.785Z,3.80
2019-05-22T02:43:43.272Z,3.58
2019-05-22T02:44:45.102Z,3.90
2019-05-22T02:45:46.948Z,3.92
2019-05-22T02:46:50.337Z,3.80
2019-05-22T02:47:52.523Z,3.72
2019-05-22T02:48:55.209Z,3.58
2019-05-22T02:49:57.608Z,3.52
2019-05-22T02:50:59.187Z,3.85
2019-05-22T02:52:02.180Z,3.50
2019-05-22T02:53:07.189Z,3.60
2019-05-22T02:54:09.607Z,3.87
2019-05-22T02:55:11.563Z,3.22
2019-05-22T02:56:14.252Z,3.65
2019-05-22T02:57:16.148Z,3.55
2019-05-22T02:58:18.077Z,4.28
2019-05-22T02:59:20.387Z,3.72
2019-05-22T03:00:25.617Z,3.87
2019-05-22T03:01:27.428Z,3.47
2019-05-22T03:02:31.845Z,3.52
2019-05-22T03:03:34.741Z,3.90
2019-05-22T03:04:52.981Z,3.90
2019-05-22T03:05:54.661Z,3.60
2019-05-22T03:06:56.339Z,3.75
2019-05-22T03:07:58.240Z,3.60
2019-05-22T03:09:18.248Z,3.65
2019-05-22T03:10:22.452Z,3.65
2019-05-22T03:11:25.761Z,3.65
2019-05-22T03:12:29.876Z,4.20
2019-05-22T03:13:56.915Z,3.55
2019-05-22T03:15:00.535Z,3.80
2019-05-22T03:16:01.947Z,4.03
2019-05-22T03:17:07.028Z,3.95
2019-05-22T03:18:09.794Z,4.17
2019-05-22T03:19:16.687Z,3.98
2019-05-22T03:20:21.106Z,3.87
2019-05-22T03:21:23.040Z,4.15
2019-05-22T03:22:40.197Z,4.00
2019-05-22T03:23:41.590Z,3.77
2019-05-22T03:24:43.113Z,3.83
2019-05-22T03:25:45.892Z,3.92
2019-05-22T03:26:47.904Z,4.05
2019-05-22T03:27:50.072Z,3.98
2019-05-22T03:28:51.761Z,4.33
2019-05-22T03:29:54.676Z,4.33
2019-05-22T03:30:56.373Z,4.25
2019-05-22T03:31:59.310Z,4.10
2019-05-22T03:33:03.769Z,3.85
2019-05-22T03:34:05.147Z,4.10
2019-05-22T03:35:07.154Z,4.10
2019-05-22T03:36:11.729Z,3.87
2019-05-22T03:37:14.137Z,4.37
2019-05-22T03:38:17.682Z,4.22
2019-05-22T03:39:20.111Z,4.28
2019-05-22T03:40:21.714Z,4.20
2019-05-22T03:41:23.526Z,4.33
2019-05-22T03:42:25.329Z,4.37
2019-05-22T03:43:29.487Z,4.45
2019-05-22T03:44:31.005Z,4.50
2019-05-22T03:45:35.021Z,4.50
2019-05-22T03:46:41.501Z,4.20
2019-05-22T03:47:42.892Z,3.87
2019-05-22T03:48:44.438Z,4.37
2019-05-22T03:49:46.014Z,4.08
2019-05-22T03:50:47.531Z,4.53
2019-05-22T03:51:50.139Z,4.20
2019-05-22T03:52:54.512Z,4.40
2019-05-22T03:53:56.530Z,4.30
2019-05-22T03:55:00.188Z,3.95
2019-05-22T03:56:01.618Z,4.20
2019-05-22T03:57:03.392Z,4.12
2019-05-22T03:58:04.994Z,3.90
2019-05-22T03:59:06.673Z,4.28
2019-05-22T04:00:16.970Z,4.47
2019-05-22T04:01:21.151Z,3.72
2019-05-22T04:02:23.952Z,4.25
2019-05-22T04:03:26.948Z,4.62
2019-05-22T04:04:34.735Z,4.30
2019-05-22T04:05:38.022Z,4.62
2019-05-22T04:06:39.658Z,4.50
2019-05-22T04:07:42.318Z,4.45
2019-05-22T04:08:44.716Z,4.10
2019-05-22T04:09:48.286Z,4.37
2019-05-22T04:10:59.195Z,4.12
2019-05-22T04:12:02.090Z,4.40
2019-05-22T04:13:03.876Z,4.35
2019-05-22T04:14:05.265Z,4.25
2019-05-22T04:15:08.846Z,4.08
2019-05-22T04:16:12.439Z,4.70
2019-05-22T04:17:14.124Z,4.37
2019-05-22T04:18:17.912Z,4.45
2019-05-22T04:19:20.874Z,4.65
2019-05-22T04:20:22.338Z,4.40
2019-05-22T04:21:24.451Z,4.58
2019-05-22T04:22:26.266Z,4.45
2019-05-22T04:23:27.785Z,4.10
2019-05-22T04:24:29.349Z,4.30
2019-05-22T04:25:31.454Z,4.28
2019-05-22T04:26:32.873Z,4.33
2019-05-22T04:27:35.907Z,4.17
2019-05-22T04:28:46.952Z,3.98
2019-05-22T04:29:49.750Z,3.98
2019-05-22T04:30:53.130Z,4.58
2019-05-22T04:32:11.655Z,3.83
2019-05-22T04:33:13.242Z,3.95
2019-05-22T04:34:15.143Z,4.17
2019-05-22T04:35:18.707Z,4.45
2019-05-22T04:36:21.995Z,4.30
2019-05-22T04:37:24.482Z,4.25
2019-05-22T04:38:26.582Z,4.30
2019-05-22T04:39:28.682Z,4.47
2019-05-22T04:40:40.187Z,4.40
2019-05-22T04:41:42.618Z,4.45
2019-05-22T04:42:44.729Z,3.95
2019-05-22T04:43:46.836Z,4.47
2019-05-22T04:45:13.809Z,4.17
2019-05-22T04:46:16.825Z,4.45
2019-05-22T04:47:19.054Z,4.30
2019-05-22T04:48:21.129Z,4.40
2019-05-22T04:49:23.389Z,4.03
2019-05-22T04:50:25.873Z,3.85
2019-05-22T04:51:29.495Z,4.08
2019-05-22T04:52:31.182Z,4.35
2019-05-22T04:53:33.695Z,4.08
2019-05-22T04:54:35.198Z,4.15
2019-05-22T04:55:37.944Z,4.42
2019-05-22T04:56:39.937Z,4.33
2019-05-22T04:57:41.627Z,4.00
2019-05-22T04:58:43.000Z,3.83
2019-05-22T04:59:44.413Z,4.45
2019-05-22T05:00:46.090Z,3.52
2019-05-22T05:01:48.185Z,3.62
2019-05-22T05:02:51.134Z,3.65
2019-05-22T05:03:54.840Z,3.55
2019-05-22T05:04:57.745Z,3.60
2019-05-22T05:05:59.353Z,3.22
2019-05-22T05:07:02.964Z,3.42
2019-05-22T05:08:04.997Z,3.30
2019-05-22T05:09:07.777Z,3.35
2019-05-22T05:10:09.375Z,3.85
2019-05-22T05:11:10.772Z,4.03
2019-05-22T05:12:12.287Z,3.75
2019-05-22T05:13:13.856Z,3.70
2019-05-22T05:14:15.461Z,3.58
2019-05-22T05:15:16.937Z,3.35
2019-05-22T05:16:18.537Z,3.00
2019-05-22T05:17:20.227Z,3.67
2019-05-22T05:18:21.729Z,3.50
2019-05-22T05:19:23.319Z,3.37
2019-05-22T05:20:24.772Z,3.27
2019-05-22T05:21:26.877Z,3.10
2019-05-22T05:22:41.242Z,3.50
2019-05-22T05:23:42.621Z,3.22
2019-05-22T05:24:44.234Z,3.10
2019-05-22T05:25:45.804Z,3.37
2019-05-22T05:26:47.215Z,3.33
2019-05-22T05:27:49.199Z,3.12
2019-05-22T05:28:51.502Z,3.00
2019-05-22T05:29:52.988Z,3.20
2019-05-22T05:30:54.481Z,3.10
2019-05-22T05:31:56.267Z,3.02
2019-05-22T05:32:57.992Z,3.02
2019-05-22T05:34:18.137Z,3.08
2019-05-22T05:35:20.744Z,3.05
2019-05-22T05:36:22.519Z,3.02
2019-05-22T05:37:25.416Z,2.83
2019-05-22T05:38:33.438Z,3.15
2019-05-22T05:39:39.438Z,2.72
2019-05-22T05:40:41.577Z,2.80
2019-05-22T05:41:43.130Z,2.87
2019-05-22T05:42:44.751Z,3.20
2019-05-22T05:43:46.242Z,3.00
2019-05-22T05:44:47.621Z,2.92
2019-05-22T05:45:50.128Z,3.30
2019-05-22T05:46:51.806Z,2.58
2019-05-22T05:47:55.115Z,3.25
2019-05-22T05:48:56.903Z,2.83
2019-05-22T05:49:58.694Z,2.98
2019-05-22T05:51:06.653Z,2.65
2019-05-22T05:52:10.132Z,2.83
2019-05-22T05:53:16.250Z,3.10
2019-05-22T05:54:18.447Z,2.95
2019-05-22T05:55:23.021Z,3.10
2019-05-22T05:56:25.012Z,2.62
2019-05-22T05:57:37.336Z,3.10
2019-05-22T05:58:40.146Z,2.67
2019-05-22T05:59:41.916Z,3.05
2019-05-22T06:00:46.188Z,2.80
2019-05-22T06:01:49.784Z,3.20
2019-05-22T06:02:56.504Z,3.45
2019-05-22T06:03:57.644Z,2.90
2019-05-22T06:04:59.229Z,3.05
2019-05-22T06:06:14.026Z,3.30
2019-05-22T06:07:17.620Z,3.20
2019-05-22T06:08:19.092Z,3.00
2019-05-22T06:09:21.951Z,3.42
2019-05-22T06:10:28.907Z,3.10
2019-05-22T06:11:39.833Z,3.30
2019-05-22T06:12:43.147Z,2.80
2019-05-22T06:13:44.528Z,2.70
2019-05-22T06:14:46.766Z,2.90
2019-05-22T06:15:51.849Z,3.15
2019-05-22T06:17:16.336Z,2.90
2019-05-22T06:18:33.759Z,2.87
2019-05-22T06:19:44.627Z,3.40
2019-05-22T06:21:02.788Z,2.92
2019-05-22T06:21:50.371Z,3.12
2019-05-22T06:23:26.389Z,2.62
2019-05-22T06:24:36.025Z,2.87
2019-05-22T06:25:37.726Z,2.90
2019-05-22T06:26:46.612Z,3.00
2019-05-22T06:27:50.609Z,2.70
2019-05-22T06:28:52.104Z,2.47
2019-05-22T06:30:00.006Z,2.80
2019-05-22T06:31:03.396Z,2.92
2019-05-22T06:32:10.286Z,2.90
2019-05-22T06:33:29.947Z,3.10
2019-05-22T06:34:31.741Z,2.90
2019-05-22T06:35:34.696Z,2.75
2019-05-22T06:36:36.124Z,2.83
2019-05-22T06:37:47.241Z,3.10
2019-05-22T06:39:00.146Z,2.83
2019-05-22T06:40:02.621Z,2.80
2019-05-22T06:41:04.801Z,2.70
2019-05-22T06:42:06.500Z,2.65
2019-05-22T06:43:24.160Z,2.87
2019-05-22T06:44:30.273Z,2.55
2019-05-22T06:45:31.725Z,2.75
2019-05-22T06:46:44.262Z,2.52
2019-05-22T06:47:46.753Z,2.60
2019-05-22T06:48:51.770Z,2.70
2019-05-22T06:49:54.096Z,2.62
2019-05-22T06:50:55.780Z,2.75
2019-05-22T06:51:57.674Z,2.70
2019-05-22T06:53:09.433Z,3.10
2019-05-22T06:54:02.868Z,2.70
2019-05-22T06:55:05.241Z,2.80
2019-05-22T06:56:06.649Z,3.00
2019-05-22T06:57:10.971Z,3.02
2019-05-22T06:58:12.570Z,2.77
2019-05-22T06:59:13.953Z,2.77
2019-05-22T07:00:17.844Z,2.70
2019-05-22T07:01:19.437Z,2.80
2019-05-22T07:02:21.269Z,2.85
2019-05-22T07:03:23.538Z,3.00
2019-05-22T07:04:25.249Z,2.75
2019-05-22T07:05:27.432Z,2.70
2019-05-22T07:06:28.944Z,2.80
2019-05-22T07:07:30.526Z,2.70
2019-05-22T07:08:31.923Z,2.72
2019-05-22T07:09:33.315Z,2.90
2019-05-22T07:10:35.204Z,2.87
2019-05-22T07:11:37.183Z,2.98
2019-05-22T07:12:38.685Z,2.45
2019-05-22T07:13:40.660Z,2.67
2019-05-22T07:15:05.817Z,3.00
2019-05-22T07:16:07.300Z,2.80
2019-05-22T07:17:11.496Z,3.22
2019-05-22T07:18:14.595Z,3.02
2019-05-22T07:19:16.761Z,2.87
2019-05-22T07:20:18.855Z,3.33
2019-05-22T07:21:33.329Z,2.50
2019-05-22T07:22:25.234Z,2.70
2019-05-22T07:23:27.136Z,2.50
2019-05-22T07:24:28.936Z,2.95
2019-05-22T07:25:32.451Z,2.40
2019-05-22T07:26:35.256Z,2.62
2019-05-22T07:27:37.071Z,2.80
2019-05-22T07:28:39.265Z,3.20
2019-05-22T07:29:40.742Z,2.50
2019-05-22T07:30:43.268Z,2.83
2019-05-22T07:31:45.354Z,2.92
2019-05-22T07:32:47.554Z,2.75
2019-05-22T07:33:50.982Z,3.17
2019-05-22T07:34:52.589Z,2.85
2019-05-22T07:36:09.188Z,2.90
2019-05-22T07:36:57.804Z,3.10
2019-05-22T07:37:59.812Z,2.90
2019-05-22T07:39:01.572Z,3.20
2019-05-22T07:40:05.555Z,2.60
2019-05-22T07:41:07.650Z,2.90
2019-05-22T07:42:09.027Z,3.25
2019-05-22T07:43:10.528Z,3.00
2019-05-22T07:44:12.048Z,3.25
2019-05-22T07:45:13.957Z,3.02
2019-05-22T07:46:15.414Z,3.22
2019-05-22T07:47:20.899Z,3.45
2019-05-22T07:48:23.676Z,3.05
2019-05-22T07:49:25.469Z,3.30
2019-05-22T07:50:28.559Z,3.17
2019-05-22T07:51:30.935Z,3.00
2019-05-22T07:52:32.501Z,2.67
2019-05-22T07:53:33.872Z,3.10
2019-05-22T07:54:37.426Z,3.12
2019-05-22T07:55:40.063Z,3.45
2019-05-22T07:56:42.773Z,3.10
2019-05-22T07:57:47.640Z,3.02
2019-05-22T07:58:49.133Z,3.40
2019-05-22T07:59:51.409Z,3.02
2019-05-22T08:00:55.277Z,3.33
2019-05-22T08:01:56.976Z,3.20
2019-05-22T08:02:59.359Z,3.05
2019-05-22T08:04:01.658Z,3.33
2019-05-22T08:05:04.901Z,4.05
2019-05-22T08:06:07.600Z,2.92
2019-05-22T08:07:10.095Z,3.25
2019-05-22T08:08:13.776Z,3.58
2019-05-22T08:09:18.767Z,3.47
2019-05-22T08:10:21.486Z,3.12
2019-05-22T08:11:23.864Z,3.77
2019-05-22T08:12:25.956Z,3.67
2019-05-22T08:13:29.379Z,3.52
2019-05-22T08:14:31.795Z,3.20
2019-05-22T08:15:33.505Z,3.00
2019-05-22T08:16:35.385Z,3.30
2019-05-22T08:17:37.473Z,3.22
2019-05-22T08:18:39.790Z,3.22
2019-05-22T08:19:41.150Z,2.90
2019-05-22T08:20:43.476Z,3.40
2019-05-22T08:21:45.363Z,3.47
2019-05-22T08:22:49.224Z,3.47
2019-05-22T08:23:52.813Z,3.77
2019-05-22T08:24:54.289Z,3.52
2019-05-22T08:25:57.111Z,3.65
2019-05-22T08:26:58.707Z,3.05
2019-05-22T08:28:00.380Z,3.45
2019-05-22T08:29:03.569Z,3.70
2019-05-22T08:30:06.560Z,3.58
2019-05-22T08:31:10.058Z,3.75
2019-05-22T08:32:11.441Z,3.52
2019-05-22T08:33:15.105Z,3.40
2019-05-22T08:34:16.649Z,3.70
2019-05-22T08:35:19.644Z,3.42
2019-05-22T08:36:21.242Z,3.80
2019-05-22T08:37:26.230Z,3.20
2019-05-22T08:38:30.418Z,3.65
2019-05-22T08:39:32.101Z,3.92
2019-05-22T08:40:33.894Z,3.85
2019-05-22T08:41:41.036Z,3.70
2019-05-22T08:42:43.832Z,3.40
2019-05-22T08:44:15.202Z,3.40
2019-05-22T08:44:49.455Z,3.92
2019-05-22T08:45:51.641Z,3.83
2019-05-22T08:46:53.666Z,3.83
2019-05-22T08:47:55.347Z,3.20
2019-05-22T08:48:56.946Z,3.72
2019-05-22T08:49:59.021Z,3.02
2019-05-22T08:51:04.065Z,3.27
2019-05-22T08:52:22.458Z,3.75
2019-05-22T08:53:12.398Z,3.62
2019-05-22T08:54:14.119Z,3.37
2019-05-22T08:55:16.031Z,3.30
2019-05-22T08:56:18.333Z,3.72
2019-05-22T08:58:38.241Z,2.85
2019-05-22T08:59:39.953Z,3.55
2019-05-22T09:00:41.361Z,3.58
2019-05-22T09:01:42.763Z,3.60
2019-05-22T09:02:44.137Z,3.37
2019-05-22T09:03:45.943Z,3.80
2019-05-22T09:04:47.727Z,3.80
2019-05-22T09:05:49.221Z,3.72
2019-05-22T09:06:50.656Z,3.50
2019-05-22T09:07:52.674Z,3.77
2019-05-22T09:08:54.080Z,3.30
2019-05-22T09:09:56.291Z,3.22
2019-05-22T09:10:58.098Z,3.10
2019-05-22T09:11:59.831Z,3.27
2019-05-22T09:13:01.219Z,3.95
2019-05-22T09:14:02.931Z,2.75
2019-05-22T09:15:08.538Z,3.05
2019-05-22T09:16:10.549Z,3.58
2019-05-22T09:17:13.156Z,3.30
2019-05-22T09:18:14.850Z,3.00
2019-05-22T09:19:16.807Z,3.08
2019-05-22T09:20:19.997Z,3.20
2019-05-22T09:21:22.703Z,3.40
2019-05-22T09:22:39.481Z,3.00
2019-05-22T09:23:27.609Z,3.00
2019-05-22T09:24:30.793Z,3.00
2019-05-22T09:25:33.278Z,3.30
2019-05-22T09:26:35.180Z,2.90
2019-05-22T09:27:36.699Z,3.02
2019-05-22T09:28:38.382Z,2.85
2019-05-22T09:29:39.772Z,2.75
2019-05-22T09:30:42.401Z,3.30
2019-05-22T09:31:44.358Z,2.98
2019-05-22T09:32:47.691Z,3.12
2019-05-22T09:33:49.178Z,3.10
2019-05-22T09:34:51.263Z,3.02
2019-05-22T09:35:52.760Z,2.90
2019-05-22T09:36:54.242Z,2.80
2019-05-22T09:37:55.962Z,2.90
2019-05-22T09:38:57.753Z,3.10
2019-05-22T09:39:59.356Z,3.30
2019-05-22T09:41:00.921Z,2.80
2019-05-22T09:42:03.021Z,3.10
2019-05-22T09:43:05.339Z,3.15
2019-05-22T09:44:06.933Z,3.30
2019-05-22T09:45:09.255Z,3.00
2019-05-22T09:46:11.418Z,2.65
2019-05-22T09:47:13.310Z,2.98
2019-05-22T09:48:14.928Z,3.17
2019-05-22T09:49:16.337Z,2.98
2019-05-22T09:50:18.038Z,2.87
2019-05-22T09:51:19.652Z,2.87
2019-05-22T09:52:22.817Z,2.80
2019-05-22T09:53:24.310Z,2.98
2019-05-22T09:54:26.161Z,2.52
2019-05-22T09:55:28.049Z,2.87
2019-05-22T09:56:29.737Z,2.70
2019-05-22T09:57:31.429Z,2.95
2019-05-22T09:58:32.953Z,2.58
2019-05-22T09:59:34.664Z,2.60
2019-05-22T10:00:36.479Z,2.70
2019-05-22T10:01:37.984Z,2.98
2019-05-22T10:02:39.797Z,2.47
2019-05-22T10:03:41.496Z,2.83
2019-05-22T10:04:42.865Z,3.00
2019-05-22T10:05:44.465Z,2.75
2019-05-22T10:06:46.436Z,2.90
2019-05-22T10:07:59.292Z,2.95
2019-05-22T10:08:51.927Z,3.25
2019-05-22T10:09:53.358Z,2.67
2019-05-22T10:10:54.751Z,3.20
2019-05-22T10:11:56.162Z,2.98
2019-05-22T10:12:58.369Z,3.10
2019-05-22T10:14:00.410Z,2.98
2019-05-22T10:15:03.479Z,3.10
2019-05-22T10:16:06.300Z,3.27
2019-05-22T10:17:08.184Z,3.17
2019-05-22T10:18:10.399Z,2.85
2019-05-22T10:19:12.290Z,3.00
2019-05-22T10:20:14.604Z,2.95
2019-05-22T10:21:16.418Z,2.87
2019-05-22T10:22:17.817Z,2.72
2019-05-22T10:23:19.730Z,3.00
2019-05-22T10:24:21.665Z,2.75
2019-05-22T10:25:23.213Z,2.72
2019-05-22T10:26:24.714Z,3.12
2019-05-22T10:27:26.514Z,2.90
2019-05-22T10:28:28.425Z,3.22
2019-05-22T10:29:32.328Z,2.90
2019-05-22T10:30:33.943Z,3.08
2019-05-22T10:31:35.463Z,3.00
2019-05-22T10:32:37.020Z,2.85
2019-05-22T10:33:38.717Z,2.95
2019-05-22T10:34:40.401Z,3.00
2019-05-22T10:35:42.080Z,2.90
2019-05-22T10:36:43.482Z,2.85
2019-05-22T10:37:45.531Z,2.67
2019-05-22T10:38:47.061Z,2.83
2019-05-22T10:39:49.599Z,3.17
2019-05-22T10:40:50.988Z,3.10
2019-05-22T10:41:52.489Z,3.17
2019-05-22T10:42:55.601Z,3.08
2019-05-22T10:43:57.670Z,3.17
2019-05-22T10:44:59.343Z,3.17
2019-05-22T10:46:00.812Z,3.05
2019-05-22T10:47:03.804Z,3.60
2019-05-22T10:48:05.174Z,3.20
2019-05-22T10:49:06.960Z,3.25
2019-05-22T10:50:08.726Z,3.17
2019-05-22T10:51:10.538Z,2.92
2019-05-22T10:52:12.447Z,3.20
2019-05-22T10:53:30.647Z,3.42
2019-05-22T10:54:18.270Z,3.50
2019-05-22T10:55:21.973Z,3.02
2019-05-22T10:56:23.419Z,3.12
2019-05-22T10:57:25.312Z,3.12
2019-05-22T10:58:26.916Z,3.35
2019-05-22T10:59:28.840Z,3.30
2019-05-22T11:00:30.980Z,3.27
2019-05-22T11:01:32.364Z,3.40
2019-05-22T11:02:33.764Z,3.30
2019-05-22T11:03:36.046Z,3.17
2019-05-22T11:04:37.645Z,3.52
2019-05-22T11:05:40.178Z,3.33
2019-05-22T11:06:41.970Z,3.52
2019-05-22T11:07:43.981Z,3.77
2019-05-22T11:08:46.094Z,3.12
2019-05-22T11:09:49.217Z,3.30
2019-05-22T11:10:51.450Z,3.17
2019-05-22T11:11:53.628Z,3.58
2019-05-22T11:12:55.222Z,3.47
2019-05-22T11:14:01.705Z,3.17
2019-05-22T11:15:00.619Z,3.42
2019-05-22T11:16:03.675Z,3.47
2019-05-22T11:17:05.968Z,3.77
2019-05-22T11:18:08.593Z,3.20
2019-05-22T11:19:10.127Z,2.90
2019-05-22T11:20:12.520Z,3.70
2019-05-22T11:21:14.618Z,3.40
2019-05-22T11:22:17.593Z,3.25
2019-05-22T11:23:18.993Z,3.45
2019-05-22T11:24:21.377Z,3.20
2019-05-22T11:25:23.572Z,3.27
2019-05-22T11:26:25.277Z,3.50
2019-05-22T11:27:27.048Z,3.35
2019-05-22T11:28:29.062Z,3.80
2019-05-22T11:29:30.443Z,3.22
2019-05-22T11:30:32.651Z,3.90
2019-05-22T11:31:34.864Z,3.70
2019-05-22T11:32:36.255Z,3.33
2019-05-22T11:33:37.749Z,3.40
2019-05-22T11:34:39.653Z,3.22
2019-05-22T11:35:41.237Z,3.35
2019-05-22T11:36:42.821Z,3.67
2019-05-22T11:37:45.692Z,3.15
2019-05-22T11:38:47.202Z,2.92
2019-05-22T11:39:50.423Z,3.62
2019-05-22T11:40:51.924Z,3.65
2019-05-22T11:41:54.643Z,3.50
2019-05-22T11:42:56.732Z,3.37
2019-05-22T11:43:58.114Z,3.37
2019-05-22T11:44:59.909Z,3.60
2019-05-22T11:46:02.098Z,3.92
2019-05-22T11:47:04.745Z,3.40
2019-05-22T11:48:06.715Z,3.80
2019-05-22T11:49:08.517Z,3.30
2019-05-22T11:50:11.263Z,3.72
2019-05-22T11:51:13.368Z,3.70
2019-05-22T11:52:14.763Z,3.80
2019-05-22T11:53:16.172Z,3.70
2019-05-22T11:54:17.648Z,3.50
2019-05-22T11:55:20.337Z,3.90
2019-05-22T11:56:21.710Z,3.52
2019-05-22T11:57:23.888Z,3.60
2019-05-22T11:58:25.368Z,3.45
2019-05-22T11:59:26.852Z,4.05
2019-05-22T12:00:28.748Z,3.27
2019-05-22T12:01:30.133Z,3.65
2019-05-22T12:02:31.934Z,3.55
2019-05-22T12:03:34.118Z,3.45
2019-05-22T12:04:47.421Z,3.50
2019-05-22T12:05:39.409Z,3.70
2019-05-22T12:06:41.527Z,3.45
2019-05-22T12:07:44.845Z,3.30
2019-05-22T12:08:47.959Z,3.75
2019-05-22T12:09:49.329Z,3.25
2019-05-22T12:10:50.913Z,3.85
2019-05-22T12:11:53.005Z,3.15
2019-05-22T12:12:55.519Z,3.60
2019-05-22T12:13:56.989Z,3.15
2019-05-22T12:14:58.797Z,3.35
2019-05-22T12:16:03.582Z,3.10
2019-05-22T12:17:06.185Z,3.25
2019-05-22T12:18:10.189Z,4.03
2019-05-22T12:19:12.273Z,3.37
2019-05-22T12:20:15.970Z,3.75
2019-05-22T12:21:17.657Z,3.40
2019-05-22T12:22:20.086Z,3.65
2019-05-22T12:23:23.724Z,3.55
2019-05-22T12:24:30.176Z,3.22
2019-05-22T12:25:29.300Z,3.58
2019-05-22T12:26:30.774Z,3.95
2019-05-22T12:27:32.232Z,3.70
2019-05-22T12:28:33.724Z,3.80
2019-05-22T12:29:36.215Z,3.45
2019-05-22T12:30:38.008Z,3.80
2019-05-22T12:31:39.797Z,3.67
2019-05-22T12:32:41.383Z,3.40
2019-05-22T12:33:43.541Z,3.55
2019-05-22T12:34:44.922Z,3.50
2019-05-22T12:35:47.817Z,3.22
2019-05-22T12:36:51.483Z,3.98
2019-05-22T12:37:53.221Z,3.67
2019-05-22T12:38:55.149Z,3.45
2019-05-22T12:39:57.236Z,3.50
2019-05-22T12:40:59.361Z,3.50
2019-05-22T12:42:02.136Z,3.22
2019-05-22T12:43:05.227Z,3.52
2019-05-22T12:44:07.433Z,3.67
2019-05-22T12:45:09.319Z,3.40
2019-05-22T12:46:11.919Z,3.55
2019-05-22T12:47:13.493Z,3.45
2019-05-22T12:48:16.998Z,3.50
2019-05-22T12:49:19.610Z,3.70
2019-05-22T12:50:23.549Z,3.40
2019-05-22T12:51:25.184Z,3.70
2019-05-22T12:52:26.677Z,3.60
2019-05-22T12:53:28.685Z,3.83
2019-05-22T12:54:45.136Z,3.70
2019-05-22T12:55:34.229Z,3.45
2019-05-22T12:56:36.095Z,3.83
2019-05-22T12:57:38.290Z,3.67
2019-05-22T12:58:40.174Z,3.47
2019-05-22T12:59:42.860Z,3.60
2019-05-22T13:00:44.359Z,3.58
2019-05-22T13:01:46.758Z,4.50
2019-05-22T13:02:48.937Z,3.52
2019-05-22T13:03:50.829Z,3.62
2019-05-22T13:04:52.578Z,3.55
2019-05-22T13:05:54.252Z,3.60
2019-05-22T13:06:56.749Z,3.87
2019-05-22T13:07:58.740Z,3.83
2019-05-22T13:09:00.433Z,3.98
2019-05-22T13:10:06.902Z,3.40
2019-05-22T13:11:08.992Z,3.33
2019-05-22T13:12:12.184Z,3.77
2019-05-22T13:13:14.090Z,3.90
2019-05-22T13:14:15.587Z,3.98
2019-05-22T13:15:17.638Z,3.90
2019-05-22T13:16:19.376Z,3.72
2019-05-22T13:17:22.980Z,3.58
2019-05-22T13:18:26.158Z,3.90
2019-05-22T13:19:30.960Z,3.67
2019-05-22T13:20:42.481Z,3.40
2019-05-22T13:21:39.887Z,3.50
2019-05-22T13:22:47.900Z,3.65
2019-05-22T13:23:50.441Z,3.90
2019-05-22T13:24:52.032Z,3.87
2019-05-22T13:25:54.257Z,3.42
2019-05-22T13:26:56.728Z,4.12
2019-05-22T13:27:59.797Z,3.87
2019-05-22T13:29:03.675Z,3.45
2019-05-22T13:30:07.277Z,3.83
2019-05-22T13:31:09.502Z,3.87
2019-05-22T13:32:13.092Z,3.75
2019-05-22T13:33:18.777Z,3.60
2019-05-22T13:34:21.059Z,3.83
2019-05-22T13:35:22.575Z,3.62
2019-05-22T13:36:24.758Z,3.70
2019-05-22T13:37:26.128Z,4.03
2019-05-22T13:38:27.723Z,4.05
2019-05-22T13:39:29.408Z,3.52
2019-05-22T13:40:32.006Z,3.40
2019-05-22T13:41:33.797Z,3.80
2019-05-22T13:42:35.277Z,3.90
2019-05-22T13:43:37.230Z,3.50
2019-05-22T13:44:40.069Z,3.60
2019-05-22T13:45:42.161Z,3.98
2019-05-22T13:46:43.800Z,3.70
2019-05-22T13:47:45.178Z,4.10
2019-05-22T13:48:46.681Z,3.77
2019-05-22T13:49:48.253Z,3.47
2019-05-22T13:50:50.582Z,3.58
2019-05-22T13:51:52.506Z,3.60
2019-05-22T13:52:55.637Z,3.80
2019-05-22T13:53:58.144Z,3.50
2019-05-22T13:54:59.622Z,3.70
2019-05-22T13:56:01.255Z,3.92
2019-05-22T13:57:03.651Z,4.05
2019-05-22T13:58:06.491Z,3.90
2019-05-22T13:59:08.146Z,3.80
2019-05-22T14:00:13.553Z,4.28
2019-05-22T14:01:14.980Z,4.12
2019-05-22T14:02:16.498Z,3.83
2019-05-22T14:03:19.169Z,4.00